tititudorancea.com
Station Historical Data
Daily Summary for May 6, 2018 Units:  Metric    English   Both
« Previous Day
Next Day »
Daily Weekly Monthly Yearly Custom
  High: Low: Average:
Temperature: -17.8 °C 6.1 °C 11.4 °C
Dew Point: -17.8 °C 5.2 °C 8.8 °C
Humidity: Humidity % 60 % 85 %
Wind Speed: 0 km/h 0 km/h 3.4 km/h
Wind Gust: 0 km/h - -
Wind:- - WNW
Pressure: 0 hPa 1023.6 hPa -
Precipitation: 0.51 mm    
Historical Graphs
 
 
Ararat weather Find more about Weather in Ararat, AU


 



 


Tabular Data for May 6, 2018
Time Temperature Dew Point Pressure Wind Wind Speed Wind Gust Humidity Rainfall Rate (Hourly)
-17.8 °C -17.8 °C 0 hPa Calm     Humidity % 0 mm
00:03 9.6 °C 8.2 °C 1029 hPa NW 1.3 km/h 1.9 km/h 91 % 0 mm
00:08 9.4 °C 8 °C 1029 hPa Calm     91 % 0 mm
00:11 9.4 °C 8.2 °C 1029 hPa NW 0.2 km/h 1.9 km/h 92 % 0 mm
00:16 9.4 °C 8.2 °C 1029 hPa Calm     92 % 0 mm
00:21 9.3 °C 8.1 °C 1029 hPa Calm     92 % 0 mm
00:26 9.4 °C 8.2 °C 1029 hPa Calm     92 % 0 mm
00:28 9.4 °C 8.2 °C 1029 hPa Calm     92 % 0 mm
00:33 9.2 °C 7.8 °C 1029.3 hPa Calm     91 % 0 mm
00:38 9 °C 7.6 °C 1029 hPa Calm     91 % 0 mm
00:43 8.8 °C 7.4 °C 1029.3 hPa Calm     91 % 0 mm
00:48 8.6 °C 7.2 °C 1029.3 hPa Calm     91 % 0 mm
00:53 8.5 °C 7.1 °C 1029 hPa Calm     91 % 0 mm
00:58 8.3 °C 7.1 °C 1029 hPa NW 3.2 km/h 5.6 km/h 92 % 0 mm
01:03 8.3 °C 7.3 °C 1029 hPa NW 0.8 km/h 1.9 km/h 93 % 0 mm
01:08 8.5 °C 7.4 °C 1029.3 hPa Calm     93 % 0 mm
01:13 8.6 °C 7.3 °C 1029 hPa North 0.5 km/h 3.2 km/h 92 % 0 mm
01:18 8.4 °C 7.3 °C 1029 hPa North 4.3 km/h 5.6 km/h 93 % 0 mm
01:23 8.3 °C 7.1 °C 1029 hPa NW 1.6 km/h 3.7 km/h 92 % 0 mm
01:28 8.2 °C 7.2 °C 1029 hPa Calm     93 % 0 mm
01:33 8.1 °C 6.9 °C 1029 hPa Calm     92 % 0 mm
01:38 7.9 °C 6.7 °C 1029 hPa Calm     92 % 0 mm
01:43 7.8 °C 6.7 °C 1029 hPa Calm     93 % 0 mm
01:48 7.7 °C 6.6 °C 1029 hPa Calm     93 % 0 mm
01:53 7.6 °C 6.6 °C 1029 hPa NW 0.3 km/h 1.9 km/h 93 % 0 mm
01:58 7.7 °C 6.6 °C 1029 hPa NW 2.9 km/h 5.6 km/h 93 % 0 mm
02:03 7.8 °C 6.9 °C 1029 hPa North 3.5 km/h 5.6 km/h 94 % 0 mm
02:08 8 °C 7.1 °C 1029 hPa NW 3.1 km/h 5.6 km/h 94 % 0 mm
02:13 8.3 °C 7.6 °C 1029 hPa NW 3.2 km/h 6.4 km/h 95 % 0 mm
02:18 8.6 °C 7.7 °C 1029 hPa NW 3.7 km/h 5.6 km/h 94 % 0 mm
02:23 8.6 °C 7.7 °C 1029 hPa NW 2.3 km/h 5.6 km/h 94 % 0 mm
02:28 8.6 °C 7.5 °C 1029 hPa NW 0.8 km/h 3.7 km/h 93 % 0 mm
02:33 8.7 °C 7.8 °C 1029 hPa Calm     94 % 0 mm
02:38 8.8 °C 8.1 °C 1029 hPa NW 0.8 km/h 5.6 km/h 95 % 0 mm
02:43 9.1 °C 8.3 °C 1029 hPa Calm     95 % 0 mm
02:48 9.2 °C 8.3 °C 1029 hPa Calm     94 % 0 mm
02:53 9.1 °C 8.2 °C 1029 hPa Calm     94 % 0 mm
02:58 9 °C 8.1 °C 1029 hPa NW 3.7 km/h 5.6 km/h 94 % 0.25 mm
03:03 9 °C 8.1 °C 1029 hPa North 1.9 km/h 3.2 km/h 94 % 0.25 mm
03:08 9.1 °C 8.2 °C 1029 hPa NW 0.2 km/h 1.9 km/h 94 % 0.25 mm
03:13 9 °C 8.1 °C 1029 hPa Calm     94 % 0.25 mm
03:18 9.1 °C 8.2 °C 1029 hPa Calm     94 % 0.25 mm
03:23 8.9 °C 8.1 °C 1029 hPa Calm     94 % 0.25 mm
03:28 8.7 °C 7.7 °C 1029 hPa Calm     93 % 0.25 mm
03:33 8.5 °C 7.4 °C 1029 hPa Calm     93 % 0.25 mm
03:38 8.3 °C 7.2 °C 1029 hPa NW 3.9 km/h 5.6 km/h 93 % 0.25 mm
03:43 8.4 °C 7.5 °C 1029 hPa NW 3.2 km/h 5.6 km/h 94 % 0.25 mm
03:45 8.3 °C 7.4 °C 1029 hPa NW 2.1 km/h 5.6 km/h 94 % 0.25 mm
03:50 8.3 °C 7.4 °C 1029 hPa Calm   1.9 km/h 94 % 0.25 mm
03:55 8.3 °C 7.4 °C 1029 hPa Calm     94 % 0.25 mm
04:00 8.3 °C 7.6 °C 1029 hPa Calm     95 % 0 mm
04:05 8.3 °C 7.4 °C 1029 hPa Calm     94 % 0 mm
04:10 8.1 °C 7.2 °C 1029 hPa Calm     94 % 0 mm
04:15 8.2 °C 7.3 °C 1029 hPa Calm     94 % 0 mm
04:20 8.1 °C 7.2 °C 1029.3 hPa Calm     94 % 0 mm
04:25 7.9 °C 7 °C 1029.3 hPa Calm     94 % 0 mm
04:30 7.8 °C 6.9 °C 1029.3 hPa Calm     94 % 0 mm
04:35 7.7 °C 6.8 °C 1029.3 hPa Calm     94 % 0 mm
04:40 7.6 °C 6.7 °C 1029.3 hPa Calm     94 % 0 mm
04:45 7.3 °C 6.4 °C 1029.3 hPa Calm     94 % 0 mm
04:50 7.2 °C 6.3 °C 1029.3 hPa Calm     94 % 0 mm
04:55 7.2 °C 6.3 °C 1029.3 hPa Calm     94 % 0 mm
05:00 7.2 °C 6.4 °C 1029.3 hPa Calm     95 % 0 mm
05:05 7.2 °C 6.4 °C 1029.7 hPa Calm     95 % 0 mm
05:10 7.1 °C 6.2 °C 1029.7 hPa Calm     94 % 0 mm
05:15 6.9 °C 6 °C 1029.7 hPa North 1.9 km/h 3.7 km/h 94 % 0 mm
05:20 6.9 °C 6.2 °C 1029.7 hPa North 0.6 km/h 1.9 km/h 95 % 0 mm
05:25 6.9 °C 6.2 °C 1029.7 hPa Calm     95 % 0 mm
05:30 6.8 °C 6.1 °C 1030 hPa Calm     95 % 0 mm
05:35 6.9 °C 6.2 °C 1030 hPa Calm     95 % 0 mm
05:40 6.8 °C 6.1 °C 1030 hPa Calm     95 % 0 mm
05:45 6.7 °C 5.8 °C 1030 hPa Calm     94 % 0 mm
05:50 6.6 °C 5.7 °C 1030 hPa Calm     94 % 0 mm
05:55 6.5 °C 5.8 °C 1030 hPa Calm     95 % 0 mm
06:00 6.3 °C 5.4 °C 1030 hPa Calm     94 % 0 mm
06:05 6.2 °C 5.3 °C 1030 hPa Calm     94 % 0 mm
06:10 6.1 °C 5.2 °C 1030 hPa Calm     94 % 0 mm
06:15 6.3 °C 5.6 °C 1030 hPa Calm     95 % 0 mm
06:20 6.3 °C 5.6 °C 1030 hPa Calm     95 % 0 mm
06:25 6.2 °C 5.4 °C 1030 hPa Calm     95 % 0 mm
06:30 6.5 °C 5.9 °C 1030 hPa Calm   3.7 km/h 96 % 0 mm
06:35 6.9 °C 6.3 °C 1030.4 hPa NW 4.8 km/h 6.4 km/h 96 % 0 mm
06:40 7.1 °C 6.4 °C 1030.4 hPa NW 2.1 km/h 3.7 km/h 96 % 0 mm
06:45 7 °C 6.3 °C 1030.4 hPa North 1.9 km/h 5.6 km/h 95 % 0 mm
06:50 6.9 °C 6.2 °C 1030.4 hPa Calm     95 % 0 mm
06:55 6.8 °C 6.1 °C 1030.4 hPa Calm     95 % 0 mm
07:00 6.8 °C 6.1 °C 1030.4 hPa NW 2.1 km/h 3.7 km/h 95 % 0 mm
07:05 6.9 °C 6.2 °C 1030.4 hPa NW 3.9 km/h 5.6 km/h 95 % 0 mm
07:10 7.1 °C 6.5 °C 1030.4 hPa North 3.5 km/h 6.4 km/h 96 % 0 mm
07:15 7.2 °C 6.6 °C 1030.4 hPa NW 1.3 km/h 5.6 km/h 96 % 0 mm
07:21 7.2 °C 6.5 °C 1030.4 hPa Calm   3.7 km/h 95 % 0 mm
07:25 7.3 °C 6.6 °C 1030.7 hPa Calm     95 % 0 mm
07:30 7.2 °C 6.4 °C 1030.7 hPa Calm     95 % 0 mm
07:36 7.1 °C 6.4 °C 1030.7 hPa Calm     95 % 0 mm
07:41 7.1 °C 6.3 °C 1030.7 hPa Calm     95 % 0 mm
07:46 7 °C 6.3 °C 1030.7 hPa Calm     95 % 0.25 mm
07:51 6.9 °C 6.2 °C 1030.7 hPa Calm     95 % 0.25 mm
07:56 6.9 °C 6.2 °C 1030.7 hPa Calm     95 % 0.25 mm
07:59 7 °C 6.3 °C 1030.7 hPa Calm     95 % 0.25 mm
08:04 7.1 °C 6.5 °C 1031 hPa Calm     96 % 0.25 mm
08:09 7.3 °C 6.7 °C 1031 hPa Calm   1.9 km/h 96 % 0.25 mm
08:14 7.5 °C 6.9 °C 1030.7 hPa Calm     96 % 0.25 mm
08:19 7.7 °C 7.1 °C 1031 hPa NW 1.3 km/h 3.7 km/h 96 % 0.25 mm
08:24 7.8 °C 7.2 °C 1031 hPa NW 1 km/h 3.7 km/h 96 % 0.25 mm
08:29 7.9 °C 7.3 °C 1030.7 hPa Calm     96 % 0.25 mm
08:34 8.1 °C 7.5 °C 1031 hPa NW 0.8 km/h 1.9 km/h 96 % 0.25 mm
08:39 8.4 °C 7.8 °C 1031 hPa NW 1.1 km/h 1.9 km/h 96 % 0.25 mm
08:44 8.8 °C 8.2 °C 1031 hPa Calm     96 % 0.25 mm
08:49 9.2 °C 8.7 °C 1031 hPa Calm     97 % 0 mm
08:54 9.5 °C 9.1 °C 1031 hPa NW 1 km/h 3.7 km/h 97 % 0 mm
08:59 9.8 °C 9.4 °C 1031 hPa Calm     97 % 0 mm
09:04 9.9 °C 9.3 °C 1031 hPa Calm   1.9 km/h 96 % 0 mm
09:09 10.3 °C 9.8 °C 1031 hPa Calm     97 % 0 mm
09:17 10.9 °C 10.5 °C 1031 hPa NW 0.2 km/h 3.2 km/h 97 % 0 mm
09:22 11.1 °C 10.6 °C 1031 hPa Calm     97 % 0 mm
09:27 11.3 °C 10.7 °C 1031 hPa Calm     96 % 0 mm
09:32 11.5 °C 10.9 °C 1031 hPa NW 1.8 km/h 4.8 km/h 96 % 0 mm
09:37 11.6 °C 11 °C 1030.7 hPa NW 0.8 km/h 5.6 km/h 96 % 0 mm
09:42 11.8 °C 11.2 °C 1030.7 hPa NW 0.3 km/h 5.6 km/h 96 % 0 mm
09:47 12.1 °C 11.4 °C 1030.7 hPa NW 5.1 km/h 6.4 km/h 96 % 0 mm
09:52 12.3 °C 11.7 °C 1030.7 hPa NW 2.4 km/h 5.6 km/h 96 % 0 mm
09:57 12.6 °C 11.8 °C 1030.7 hPa NW 5.8 km/h 8 km/h 95 % 0 mm
10:02 12.9 °C 12.1 °C 1030.7 hPa NW 5.6 km/h 6.4 km/h 95 % 0 mm
10:07 13.3 °C 12.3 °C 1030.7 hPa NW 2.6 km/h 7.4 km/h 94 % 0 mm
10:12 13.6 °C 12.3 °C 1030.7 hPa NW 4 km/h 5.6 km/h 92 % 0 mm
10:17 13.8 °C 12.2 °C 1030.4 hPa NW 5.1 km/h 7.4 km/h 90 % 0 mm
10:22 14.1 °C 12 °C 1030.4 hPa North 9.5 km/h 14.8 km/h 87 % 0 mm
10:27 14.3 °C 11.8 °C 1030.7 hPa North 3.9 km/h 7.4 km/h 85 % 0 mm
10:31 14.5 °C 11.8 °C 1030.4 hPa North 6 km/h 9.3 km/h 84 % 0 mm
10:37 14.7 °C 11.8 °C 1030.4 hPa North 5.5 km/h 5.6 km/h 83 % 0 mm
10:42 14.8 °C 11.3 °C 1030.4 hPa NNW 8 km/h 11.1 km/h 80 % 0 mm
10:47 14.7 °C 11.3 °C 1030.4 hPa NNW 7.4 km/h 11.1 km/h 80 % 0 mm
10:52 14.8 °C 11.4 °C 1030.4 hPa North 6.3 km/h 13 km/h 80 % 0 mm
10:57 14.8 °C 11 °C 1030.4 hPa North 9 km/h 14.8 km/h 78 % 0 mm
11:02 14.8 °C 11.3 °C 1030 hPa North 9.2 km/h 14.8 km/h 80 % 0 mm
11:07 14.8 °C 11.3 °C 1030 hPa North 8.5 km/h 14.8 km/h 80 % 0 mm
11:12 14.8 °C 11.6 °C 1030 hPa North 8 km/h 8 km/h 81 % 0 mm
11:17 14.8 °C 11.2 °C 1030 hPa North 10.6 km/h 11.3 km/h 79 % 0 mm
11:22 14.8 °C 11.2 °C 1030 hPa North 9.5 km/h 14.8 km/h 79 % 0 mm
11:27 14.8 °C 11.3 °C 1030 hPa North 8.5 km/h 16.7 km/h 80 % 0 mm
11:32 14.9 °C 11.5 °C 1030 hPa North 8 km/h 14.8 km/h 80 % 0 mm
11:37 15.3 °C 11.4 °C 1030 hPa NNW 7.9 km/h 11.3 km/h 78 % 0 mm
11:42 15.5 °C 11.5 °C 1029.7 hPa NNW 11.3 km/h 16.7 km/h 77 % 0 mm
11:47 15.6 °C 11.7 °C 1029.7 hPa North 8.2 km/h 11.1 km/h 78 % 0 mm
11:52 15.8 °C 11.8 °C 1029.7 hPa North 6.8 km/h 9.3 km/h 77 % 0 mm
11:57 15.8 °C 11.2 °C 1029.7 hPa NNW 11.1 km/h 16.7 km/h 74 % 0 mm
12:02 15.7 °C 11.3 °C 1029.3 hPa NNW 11.7 km/h 17.7 km/h 75 % 0 mm
12:07 15.8 °C 11.6 °C 1029.3 hPa NNW 10 km/h 14.8 km/h 76 % 0 mm
12:12 15.9 °C 11.7 °C 1029.3 hPa NNW 7.9 km/h 11.1 km/h 76 % 0 mm
12:17 15.9 °C 11.7 °C 1029.3 hPa North 7.1 km/h 9.7 km/h 76 % 0 mm
12:22 16.2 °C 11.7 °C 1029 hPa North 9.5 km/h 14.8 km/h 75 % 0 mm
12:27 16 °C 11.8 °C 1029 hPa North 7.9 km/h 11.1 km/h 76 % 0 mm
12:32 16 °C 11.6 °C 1029 hPa NNE 13.4 km/h 18.5 km/h 75 % 0 mm
12:37 16.1 °C 11.6 °C 1028.7 hPa North 9 km/h 13 km/h 75 % 0 mm
12:42 16.3 °C 11.8 °C 1028.7 hPa North 10.9 km/h 16.7 km/h 75 % 0 mm
12:47 16.2 °C 11.6 °C 1028.7 hPa North 10 km/h 13 km/h 74 % 0 mm
12:52 16.4 °C 11.9 °C 1028.3 hPa NNW 5.8 km/h 9.3 km/h 75 % 0 mm
12:57 16.6 °C 11.9 °C 1028.3 hPa North 9.5 km/h 16.7 km/h 74 % 0 mm
13:02 16.6 °C 11.9 °C 1028.3 hPa North 9.3 km/h 17.7 km/h 74 % 0 mm
13:07 16.6 °C 11.7 °C 1028 hPa NNE 13.2 km/h 18.5 km/h 73 % 0 mm
13:12 16.6 °C 11.5 °C 1028 hPa North 12.4 km/h 18.5 km/h 72 % 0 mm
13:17 16.7 °C 11.7 °C 1028 hPa NNE 10.1 km/h 16.7 km/h 72 % 0 mm
13:22 16.9 °C 11.7 °C 1028 hPa NNE 9.5 km/h 13 km/h 71 % 0 mm
13:27 17.1 °C 11.6 °C 1028 hPa NNW 9 km/h 14.8 km/h 70 % 0 mm
13:32 17.1 °C 11.6 °C 1027.7 hPa North 11.4 km/h 16.7 km/h 70 % 0 mm
13:37 16.9 °C 11.7 °C 1027.7 hPa North 11.9 km/h 16.7 km/h 71 % 0 mm
13:42 16.9 °C 11.2 °C 1027.7 hPa NNW 8.9 km/h 14.8 km/h 69 % 0 mm
13:47 16.9 °C 11.4 °C 1027.7 hPa NNW 7.9 km/h 11.1 km/h 70 % 0 mm
13:52 17.3 °C 11.6 °C 1027.7 hPa NW 13 km/h 18.5 km/h 69 % 0 mm
13:57 17.1 °C 11.4 °C 1027.7 hPa NNW 5 km/h 11.3 km/h 69 % 0 mm
14:02 17 °C 11.3 °C 1027.7 hPa NNW 8 km/h 16.7 km/h 69 % 0 mm
14:07 17.2 °C 11.5 °C 1027.3 hPa NNW 10.3 km/h 14.8 km/h 69 % 0 mm
14:12 16.9 °C 11.4 °C 1027.3 hPa NNE 6.8 km/h 16.7 km/h 70 % 0 mm
14:17 17 °C 11.3 °C 1027.3 hPa NNE 15.8 km/h 20.4 km/h 69 % 0 mm
14:22 16.9 °C 11.4 °C 1027.3 hPa NNE 9.7 km/h 17.7 km/h 70 % 0 mm
14:27 16.9 °C 11.2 °C 1027 hPa North 7.2 km/h 14.8 km/h 69 % 0 mm
14:32 16.8 °C 11.1 °C 1027 hPa North 6.6 km/h 9.3 km/h 69 % 0 mm
14:37 17.1 °C 11.2 °C 1027 hPa North 6.8 km/h 13 km/h 68 % 0 mm
14:42 17.3 °C 11.1 °C 1027 hPa NW 11.7 km/h 19.3 km/h 67 % 0 mm
14:47 17.4 °C 10.8 °C 1027 hPa WNW 13.7 km/h 18.5 km/h 65 % 0 mm
14:52 17.4 °C 10.6 °C 1027 hPa NNW 8.2 km/h 13 km/h 64 % 0 mm
14:57 17.4 °C 10.5 °C 1027 hPa North 14 km/h 18.5 km/h 64 % 0 mm
15:02 17.4 °C 10.6 °C 1027 hPa NNW 10.5 km/h 14.8 km/h 64 % 0 mm
15:07 17.4 °C 10.6 °C 1027 hPa NW 7.7 km/h 11.1 km/h 64 % 0 mm
15:12 17.7 °C 10.6 °C 1027 hPa NNW 8.2 km/h 11.1 km/h 63 % 0 mm
15:17 17.7 °C 10.6 °C 1027 hPa NNW 6.6 km/h 9.3 km/h 63 % 0 mm
15:22 17.8 °C 10.2 °C 1027 hPa NW 9.3 km/h 13 km/h 61 % 0 mm
15:27 17.9 °C 10.3 °C 1027 hPa NNW 6.3 km/h 11.1 km/h 61 % 0 mm
15:32 17.9 °C 10.6 °C 1027 hPa NNW 8.4 km/h 13 km/h 62 % 0 mm
15:37 17.9 °C 10 °C 1027 hPa NW 11.6 km/h 16.7 km/h 60 % 0 mm
15:42 17.3 °C 10 °C 1027 hPa NW 8.9 km/h 14.8 km/h 62 % 0 mm
15:47 16.9 °C 9.8 °C 1027 hPa NW 6.9 km/h 14.8 km/h 63 % 0 mm
15:52 16.9 °C 9.8 °C 1027 hPa NW 6.1 km/h 11.1 km/h 63 % 0 mm
15:57 17.2 °C 10.1 °C 1027 hPa NW 8.9 km/h 11.3 km/h 63 % 0 mm
16:02 17.3 °C 9.7 °C 1027 hPa NNW 9.3 km/h 13 km/h 61 % 0 mm
16:07 17.3 °C 9.7 °C 1027 hPa NNW 4.7 km/h 11.1 km/h 61 % 0 mm
16:12 17 °C 9.9 °C 1027 hPa North 7.7 km/h 11.1 km/h 63 % 0 mm
16:17 16.7 °C 9.8 °C 1027 hPa North 4.5 km/h 8 km/h 64 % 0 mm
16:22 16.6 °C 9.7 °C 1027 hPa NNW 10.9 km/h 14.8 km/h 64 % 0 mm
16:27 16.6 °C 9.8 °C 1026.6 hPa North 3.9 km/h 7.4 km/h 64 % 0 mm
16:32 16.8 °C 9.9 °C 1026.6 hPa North 7.2 km/h 13 km/h 64 % 0 mm
16:37 16.8 °C 10 °C 1026.6 hPa NNW 6.1 km/h 11.1 km/h 64 % 0 mm
16:42 16.9 °C 10.1 °C 1026.6 hPa North 9.5 km/h 14.8 km/h 64 % 0 mm
16:47 16.8 °C 9.9 °C 1026.6 hPa North 6.6 km/h 13 km/h 64 % 0 mm
16:52 16.7 °C 10.1 °C 1026.6 hPa North 4.5 km/h 5.6 km/h 65 % 0 mm
16:57 16.7 °C 10.1 °C 1026.3 hPa North 7.9 km/h 11.1 km/h 65 % 0 mm
17:02 16.4 °C 10.1 °C 1026.3 hPa North 6 km/h 11.1 km/h 66 % 0 mm
17:07 16.2 °C 10.1 °C 1026.3 hPa North 8.9 km/h 13 km/h 67 % 0 mm
17:12 16 °C 9.9 °C 1026.6 hPa North 6.3 km/h 11.1 km/h 67 % 0 mm
17:17 15.7 °C 9.8 °C 1026.3 hPa North 7.9 km/h 14.8 km/h 68 % 0 mm
17:22 15.6 °C 9.9 °C 1026.3 hPa North 4.3 km/h 7.4 km/h 69 % 0 mm
17:27 15.3 °C 9.9 °C 1026.3 hPa North 5.6 km/h 9.3 km/h 70 % 0 mm
17:32 15.2 °C 9.9 °C 1026.3 hPa North 4.2 km/h 7.4 km/h 71 % 0 mm
17:37 14.9 °C 9.7 °C 1026.3 hPa North 5.3 km/h 7.4 km/h 71 % 0 mm
17:42 14.8 °C 9.8 °C 1026.3 hPa North 3.7 km/h 5.6 km/h 72 % 0 mm
17:47 14.6 °C 9.6 °C 1026.3 hPa North 3.1 km/h 5.6 km/h 72 % 0 mm
17:52 14.4 °C 9.4 °C 1026.3 hPa North 2.1 km/h 5.6 km/h 72 % 0 mm
17:57 14.3 °C 9.6 °C 1026.3 hPa North 3.1 km/h 5.6 km/h 73 % 0 mm
18:00 14.2 °C 9.4 °C 1026.3 hPa North 1.6 km/h 3.7 km/h 73 % 0 mm
18:05 14.1 °C 9.3 °C 1026.3 hPa North 3.7 km/h 5.6 km/h 73 % 0 mm
18:10 14 °C 9.4 °C 1026.3 hPa North 1 km/h 3.7 km/h 74 % 0 mm
18:15 13.8 °C 9.2 °C 1026.3 hPa North 0.8 km/h 1.9 km/h 74 % 0 mm
18:20 13.6 °C 9.1 °C 1026 hPa North 2.6 km/h 3.7 km/h 74 % 0 mm
18:25 13.4 °C 9.1 °C 1026 hPa Calm     75 % 0 mm
18:30 13.2 °C 9.1 °C 1026 hPa North 1.3 km/h 5.6 km/h 76 % 0 mm
18:35 13 °C 8.9 °C 1026 hPa Calm   1.9 km/h 76 % 0 mm
18:40 12.7 °C 8.9 °C 1026 hPa North 0.5 km/h 1.9 km/h 78 % 0 mm
18:45 12.5 °C 8.9 °C 1026 hPa North 0.8 km/h 1.9 km/h 79 % 0 mm
18:50 12.4 °C 9.1 °C 1026 hPa North 0.2 km/h 1.9 km/h 80 % 0 mm
18:55 12.3 °C 8.9 °C 1026 hPa North 2.3 km/h 3.7 km/h 80 % 0 mm
19:00 12.2 °C 9 °C 1026 hPa North 3.4 km/h 5.6 km/h 81 % 0 mm
19:05 12.2 °C 9 °C 1026 hPa Calm   1.9 km/h 81 % 0 mm
19:10 12 °C 9 °C 1026 hPa North 2.4 km/h 3.7 km/h 82 % 0 mm
19:18 12 °C 9 °C 1026 hPa North 3.1 km/h 5.6 km/h 82 % 0 mm
19:24 11.8 °C 8.8 °C 1026 hPa North 0.2 km/h 5.6 km/h 82 % 0 mm
19:29 11.6 °C 8.7 °C 1026 hPa North 2.9 km/h 5.6 km/h 82 % 0 mm
19:34 11.4 °C 8.6 °C 1026 hPa North 2.9 km/h 5.6 km/h 83 % 0 mm
19:39 11.2 °C 8.6 °C 1026 hPa Calm     84 % 0 mm
19:44 11.1 °C 8.5 °C 1026 hPa Calm     84 % 0 mm
19:51 11 °C 8.4 °C 1026 hPa Calm     84 % 0 mm
19:56 10.8 °C 8.6 °C 1025.6 hPa Calm     86 % 0 mm
20:01 10.7 °C 8.5 °C 1025.6 hPa North 1 km/h 3.2 km/h 86 % 0 mm
20:06 10.7 °C 8.6 °C 1025.6 hPa North 2.1 km/h 3.7 km/h 87 % 0 mm
20:11 10.7 °C 8.7 °C 1025.6 hPa North 1.8 km/h 3.2 km/h 87 % 0 mm
20:16 10.7 °C 8.6 °C 1025.6 hPa Calm     87 % 0 mm
20:21 10.4 °C 8.4 °C 1025.6 hPa Calm     87 % 0 mm
20:26 10.2 °C 8.1 °C 1025.6 hPa Calm     87 % 0 mm
20:31 9.9 °C 7.9 °C 1025.3 hPa Calm     87 % 0 mm
20:36 9.8 °C 7.9 °C 1025.3 hPa Calm   3.7 km/h 88 % 0 mm
20:41 9.7 °C 7.8 °C 1025.3 hPa Calm     88 % 0 mm
20:46 9.7 °C 8 °C 1025.3 hPa North 0.5 km/h 1.9 km/h 89 % 0 mm
20:51 9.4 °C 7.7 °C 1025.3 hPa Calm     89 % 0 mm
20:52 9.4 °C 7.7 °C 1025.3 hPa Calm     89 % 0 mm
20:57 9.4 °C 7.8 °C 1025.3 hPa Calm     90 % 0 mm
21:02 9.3 °C 7.8 °C 1025.3 hPa Calm     90 % 0 mm
21:07 9.3 °C 7.7 °C 1025.3 hPa Calm     90 % 0 mm
21:12 9.2 °C 7.7 °C 1025.3 hPa Calm     90 % 0 mm
21:17 9.1 °C 7.7 °C 1025.3 hPa NNE 1.9 km/h 3.7 km/h 91 % 0 mm
21:22 9.2 °C 7.8 °C 1025.3 hPa Calm     91 % 0 mm
21:27 9.3 °C 8.1 °C 1025.3 hPa Calm     92 % 0 mm
21:32 9.3 °C 8.1 °C 1025.3 hPa Calm     92 % 0 mm
21:37 9.3 °C 8.1 °C 1025.3 hPa Calm     92 % 0 mm
21:42 9.3 °C 8.1 °C 1025.3 hPa Calm     92 % 0 mm
21:47 9.3 °C 8.1 °C 1024.9 hPa North 1.9 km/h 5.6 km/h 92 % 0 mm
21:52 9.2 °C 8 °C 1024.9 hPa North 0.8 km/h 3.7 km/h 92 % 0 mm
21:57 9.2 °C 8 °C 1024.9 hPa North 1.4 km/h 4.8 km/h 92 % 0 mm
22:02 9.3 °C 8.1 °C 1024.9 hPa North 2.1 km/h 3.7 km/h 92 % 0 mm
22:07 9.6 °C 8.5 °C 1024.9 hPa North 3.1 km/h 5.6 km/h 93 % 0 mm
22:12 9.9 °C 8.8 °C 1024.9 hPa North 4.7 km/h 6.4 km/h 93 % 0 mm
22:17 10.1 °C 9.1 °C 1024.9 hPa North 2.4 km/h 5.6 km/h 93 % 0 mm
22:22 10.4 °C 9.3 °C 1024.6 hPa North 3.4 km/h 5.6 km/h 93 % 0 mm
22:27 10.8 °C 9.7 °C 1024.6 hPa North 4.3 km/h 5.6 km/h 93 % 0 mm
22:32 11 °C 9.7 °C 1024.9 hPa North 7.2 km/h 9.7 km/h 92 % 0 mm
22:37 11.2 °C 9.8 °C 1024.9 hPa North 6.6 km/h 9.3 km/h 91 % 0 mm
22:42 11.3 °C 9.7 °C 1024.6 hPa North 6.3 km/h 9.3 km/h 90 % 0 mm
22:47 11.4 °C 9.7 °C 1024.6 hPa North 4.7 km/h 5.6 km/h 89 % 0 mm
22:52 11.5 °C 9.7 °C 1024.6 hPa North 3.9 km/h 5.6 km/h 89 % 0 mm
22:57 11.5 °C 9.6 °C 1024.6 hPa North 4.7 km/h 5.6 km/h 88 % 0 mm
23:02 11.5 °C 9.6 °C 1024.3 hPa North 3.1 km/h 6.4 km/h 88 % 0 mm
23:07 11.4 °C 9.3 °C 1024.3 hPa North 4.5 km/h 7.4 km/h 87 % 0 mm
23:12 11.3 °C 9.2 °C 1023.9 hPa North 4.7 km/h 5.6 km/h 87 % 0 mm
23:17 11.2 °C 9.1 °C 1023.9 hPa North 3.9 km/h 9.3 km/h 87 % 0 mm
23:22 11.2 °C 9.1 °C 1023.9 hPa North 3.9 km/h 5.6 km/h 87 % 0 mm
23:27 11.2 °C 9.1 °C 1023.9 hPa North 3.7 km/h 5.6 km/h 87 % 0 mm
23:32 11.2 °C 9.1 °C 1023.9 hPa North 2.9 km/h 4.8 km/h 87 % 0 mm
23:37 11.2 °C 9.1 °C 1023.9 hPa North 3.1 km/h 3.7 km/h 87 % 0 mm
23:42 11.1 °C 9.1 °C 1023.6 hPa North 4.7 km/h 6.4 km/h 87 % 0 mm
23:47 11.1 °C 9.1 °C 1023.6 hPa North 1.1 km/h 5.6 km/h 87 % 0 mm
23:52 11 °C 8.9 °C 1023.6 hPa Calm   3.2 km/h 87 % 0 mm
23:57 10.9 °C 8.9 °C 1023.6 hPa Calm   1.9 km/h 87 % 0 mm
Ararat Weather
Compliments of Weather Underground - 2.5 mb
Click here to send mail.


ABOUT

Live weather data from Ararat, Victoria, Australia, 3377
Data uploaded from Cumulus every 5 minutes to Weather Underground.
This site then downloads the raw data for formatting and display.
Metric and imperial data can be displayed. Graphs and historical data available.
Includes Sun and Moon times and rain image live from BOM.

Check out Ararat Weather on Facebook, Twitter and Google +

Help support ongoing costs by checking out the ads





Follow @AraratWeather